createdAt,value
2022-11-28T00:01:43.097Z,90.32
2022-11-28T00:04:11.139Z,89.88
2022-11-28T00:06:45.461Z,90.09
2022-11-28T00:09:13.808Z,89.81
2022-11-28T00:11:41.747Z,90.49
2022-11-28T00:14:08.683Z,89.39
2022-11-28T00:16:36.349Z,89.56
2022-11-28T00:19:04.863Z,90.19
2022-11-28T00:21:31.919Z,89.79
2022-11-28T00:23:59.645Z,89.54
2022-11-28T00:26:30.321Z,89.77
2022-11-28T00:28:57.507Z,89.11
2022-11-28T00:31:27.349Z,88.90
2022-11-28T00:33:54.079Z,89.14
2022-11-28T00:36:21.301Z,88.44
2022-11-28T00:38:48.497Z,89.21
2022-11-28T00:41:24.370Z,88.79
2022-11-28T00:43:51.642Z,88.61
2022-11-28T00:46:19.138Z,88.81
2022-11-28T00:48:45.977Z,88.67
2022-11-28T00:51:16.516Z,89.25
2022-11-28T00:53:44.329Z,89.36
2022-11-28T00:56:13.243Z,89.81
2022-11-28T00:58:40.883Z,89.70
2022-11-28T01:01:10.349Z,89.91
2022-11-28T01:03:37.434Z,90.20
2022-11-28T01:06:04.412Z,90.14
2022-11-28T01:08:30.858Z,90.15
2022-11-28T01:10:57.407Z,90.32
2022-11-28T01:13:24.270Z,90.53
2022-11-28T01:15:50.994Z,90.27
2022-11-28T01:18:17.558Z,90.43
2022-11-28T01:20:44.170Z,90.12
2022-11-28T01:23:10.544Z,90.54
2022-11-28T01:25:36.952Z,91.21
2022-11-28T01:28:03.857Z,90.41
2022-11-28T01:30:30.438Z,89.84
2022-11-28T01:32:56.871Z,90.38
2022-11-28T01:35:23.263Z,89.71
2022-11-28T01:37:49.656Z,89.72
2022-11-28T01:40:16.077Z,90.12
2022-11-28T01:42:42.445Z,89.61
2022-11-28T01:45:30.192Z,89.89
2022-11-28T01:48:02.579Z,89.19
2022-11-28T01:50:31.413Z,89.45
2022-11-28T01:53:01.321Z,88.86
2022-11-28T01:55:34.042Z,89.61
2022-11-28T01:58:01.383Z,89.24
2022-11-28T02:00:27.901Z,89.04
2022-11-28T02:03:12.844Z,89.36
2022-11-28T02:05:39.329Z,88.97
2022-11-28T02:08:06.179Z,88.76
2022-11-28T02:11:12.944Z,88.88
2022-11-28T02:13:48.137Z,89.03
2022-11-28T02:16:17.528Z,89.10
2022-11-28T02:19:14.389Z,88.91
2022-11-28T02:21:52.390Z,88.91
2022-11-28T02:24:41.202Z,88.71
2022-11-28T02:27:40.871Z,88.31
2022-11-28T02:30:19.452Z,89.12
2022-11-28T02:33:03.476Z,89.40
2022-11-28T02:35:49.039Z,89.70
2022-11-28T02:38:21.350Z,89.77
2022-11-28T02:40:58.136Z,89.30
2022-11-28T02:44:04.403Z,89.89
2022-11-28T02:47:12.409Z,90.17
2022-11-28T02:49:49.047Z,89.87
2022-11-28T02:52:21.065Z,89.72
2022-11-28T02:54:54.455Z,90.37
2022-11-28T02:57:21.352Z,90.49
2022-11-28T02:59:50.043Z,90.44
2022-11-28T03:02:23.784Z,90.89
2022-11-28T03:05:26.064Z,91.04
2022-11-28T03:08:02.303Z,90.77
2022-11-28T03:10:59.226Z,90.95
2022-11-28T03:13:39.154Z,91.17
2022-11-28T03:16:25.357Z,90.95
2022-11-28T03:19:23.929Z,91.25
2022-11-28T03:22:11.796Z,90.70
2022-11-28T03:24:45.812Z,91.01
2022-11-28T03:27:20.172Z,91.49
2022-11-28T03:29:52.259Z,91.44
2022-11-28T03:32:30.852Z,91.23
2022-11-28T03:35:04.968Z,91.15
2022-11-28T03:37:35.841Z,91.20
2022-11-28T03:40:07.688Z,90.97
2022-11-28T03:42:40.185Z,91.08
2022-11-28T03:45:24.206Z,90.58
2022-11-28T03:47:58.925Z,91.04
2022-11-28T03:50:33.987Z,90.81
2022-11-28T03:53:03.045Z,90.60
2022-11-28T03:55:41.940Z,90.85
2022-11-28T03:58:47.162Z,90.72
2022-11-28T04:01:28.188Z,90.90
2022-11-28T04:04:29.191Z,90.68
2022-11-28T04:07:29.912Z,90.74
2022-11-28T04:10:07.404Z,90.72
2022-11-28T04:12:55.669Z,90.93
2022-11-28T04:15:30.858Z,91.47
2022-11-28T04:18:03.208Z,91.48
2022-11-28T04:20:51.873Z,90.82
2022-11-28T04:23:20.881Z,90.99
2022-11-28T04:25:54.096Z,91.06
2022-11-28T04:28:24.874Z,90.77
2022-11-28T04:30:53.596Z,91.19
2022-11-28T04:33:24.050Z,91.27
2022-11-28T04:35:53.143Z,91.55
2022-11-28T04:38:22.857Z,90.66
2022-11-28T04:40:55.223Z,90.65
2022-11-28T04:43:27.151Z,91.06
2022-11-28T04:45:59.851Z,90.88
2022-11-28T04:48:29.932Z,90.49
2022-11-28T04:51:15.553Z,90.74
2022-11-28T04:54:18.653Z,90.73
2022-11-28T04:56:50.932Z,90.84
2022-11-28T04:59:19.351Z,90.82
2022-11-28T05:01:48.457Z,90.79
2022-11-28T05:04:17.163Z,91.11
2022-11-28T05:06:43.631Z,91.44
2022-11-28T05:09:11.974Z,91.27
2022-11-28T05:11:38.843Z,91.16
2022-11-28T05:14:05.450Z,91.02
2022-11-28T05:16:31.883Z,90.95
2022-11-28T05:18:58.354Z,90.96
2022-11-28T05:21:24.792Z,90.08
2022-11-28T05:23:51.240Z,90.87
2022-11-28T05:26:20.948Z,90.36
2022-11-28T05:28:50.012Z,90.97
2022-11-28T05:31:18.785Z,90.85
2022-11-28T05:33:45.267Z,90.76
2022-11-28T05:36:13.822Z,90.78
2022-11-28T05:38:40.883Z,90.83
2022-11-28T05:41:07.532Z,90.68
2022-11-28T05:43:34.085Z,89.84
2022-11-28T05:46:00.679Z,89.99
2022-11-28T05:48:27.114Z,89.89
2022-11-28T05:50:53.593Z,90.28
2022-11-28T05:53:20.410Z,89.94
2022-11-28T05:55:47.510Z,90.69
2022-11-28T05:58:13.935Z,90.04
2022-11-28T06:00:40.531Z,90.00
2022-11-28T06:03:07.070Z,90.02
2022-11-28T06:05:43.186Z,90.49
2022-11-28T06:08:12.948Z,89.99
2022-11-28T06:10:39.660Z,89.86
2022-11-28T06:13:06.043Z,89.81
2022-11-28T06:15:37.574Z,89.93
2022-11-28T06:18:05.151Z,90.05
2022-11-28T06:20:31.632Z,90.05
2022-11-28T06:22:57.988Z,89.52
2022-11-28T06:25:24.388Z,89.47
2022-11-28T06:27:50.819Z,89.40
2022-11-28T06:30:17.391Z,89.92
2022-11-28T06:32:43.815Z,90.03
2022-11-28T06:35:10.276Z,89.98
2022-11-28T06:37:36.707Z,89.48
2022-11-28T06:40:03.768Z,89.20
2022-11-28T06:42:30.293Z,90.01
2022-11-28T06:44:56.647Z,89.18
2022-11-28T06:47:23.108Z,89.27
2022-11-28T06:49:49.505Z,89.25
2022-11-28T06:52:15.928Z,89.28
2022-11-28T06:54:42.612Z,88.63
2022-11-28T06:57:09.035Z,88.62
2022-11-28T06:59:35.479Z,88.29
2022-11-28T07:02:07.577Z,88.62
2022-11-28T07:04:34.542Z,88.99
2022-11-28T07:07:00.973Z,88.65
2022-11-28T07:09:27.410Z,88.61
2022-11-28T07:11:53.830Z,88.84
2022-11-28T07:14:20.264Z,88.44
2022-11-28T07:16:49.052Z,88.17
2022-11-28T07:19:16.172Z,88.52
2022-11-28T07:21:42.717Z,88.24
2022-11-28T07:24:09.248Z,88.02
2022-11-28T07:26:38.027Z,88.39
2022-11-28T07:29:06.877Z,88.49
2022-11-28T07:31:33.825Z,88.13
2022-11-28T07:34:03.406Z,88.57
2022-11-28T07:36:30.500Z,88.87
2022-11-28T07:38:59.541Z,88.27
2022-11-28T07:41:27.442Z,88.21
2022-11-28T07:43:56.760Z,87.97
2022-11-28T07:46:24.344Z,87.69
2022-11-28T07:48:50.839Z,86.99
2022-11-28T07:51:20.603Z,87.69
2022-11-28T07:53:47.834Z,87.60
2022-11-28T07:56:22.861Z,88.05
2022-11-28T07:58:49.767Z,87.68
2022-11-28T08:01:22.262Z,87.96
2022-11-28T08:03:49.286Z,87.82
2022-11-28T08:06:18.677Z,87.93
2022-11-28T08:08:47.093Z,87.83
2022-11-28T08:11:15.245Z,87.26
2022-11-28T08:13:42.333Z,87.34
2022-11-28T08:16:14.835Z,87.87
2022-11-28T08:18:41.621Z,87.20
2022-11-28T08:21:29.487Z,87.23
2022-11-28T08:23:59.252Z,87.60
2022-11-28T08:26:30.355Z,87.43
2022-11-28T08:28:58.474Z,88.25
2022-11-28T08:31:28.210Z,87.63
2022-11-28T08:33:56.467Z,87.71
2022-11-28T08:36:23.316Z,87.06
2022-11-28T08:39:03.379Z,86.87
2022-11-28T08:41:36.844Z,87.46
2022-11-28T08:44:03.330Z,87.72
2022-11-28T08:46:30.522Z,87.44
2022-11-28T08:48:57.082Z,87.69
2022-11-28T08:51:23.992Z,87.80
2022-11-28T08:53:54.924Z,88.10
2022-11-28T08:56:24.739Z,86.99
2022-11-28T08:58:51.225Z,87.23
2022-11-28T09:01:23.555Z,87.58
2022-11-28T09:03:50.589Z,87.81
2022-11-28T09:06:18.051Z,87.63
2022-11-28T09:08:45.355Z,87.40
2022-11-28T09:11:14.958Z,87.08
2022-11-28T09:13:41.750Z,88.15
2022-11-28T09:16:08.727Z,87.74
2022-11-28T09:18:35.635Z,86.96
2022-11-28T09:21:09.212Z,87.17
2022-11-28T09:23:37.143Z,87.36
2022-11-28T09:26:08.961Z,87.48
2022-11-28T09:28:35.413Z,87.99
2022-11-28T09:31:04.247Z,87.38
2022-11-28T09:33:31.098Z,87.82
2022-11-28T09:35:58.370Z,87.28
2022-11-28T09:38:27.855Z,88.10
2022-11-28T09:40:54.278Z,87.94
2022-11-28T09:43:31.319Z,87.50
2022-11-28T09:46:00.267Z,87.81
2022-11-28T09:48:35.285Z,88.03
2022-11-28T09:51:23.404Z,87.86
2022-11-28T09:54:10.108Z,87.54
2022-11-28T09:56:36.659Z,87.54
2022-11-28T09:59:04.310Z,87.71
2022-11-28T10:01:44.299Z,87.47
2022-11-28T10:04:23.097Z,87.66
2022-11-28T10:07:02.746Z,87.82
2022-11-28T10:09:47.567Z,87.94
2022-11-28T10:12:35.966Z,87.73
2022-11-28T10:15:12.722Z,88.54
2022-11-28T10:17:39.087Z,89.13
2022-11-28T10:20:18.617Z,89.02
2022-11-28T10:22:57.508Z,89.09
2022-11-28T10:25:32.838Z,89.39
2022-11-28T10:27:59.318Z,89.26
2022-11-28T10:30:29.179Z,89.51
2022-11-28T10:33:03.905Z,89.74
2022-11-28T10:35:51.584Z,89.53
2022-11-28T10:38:20.905Z,89.04
2022-11-28T10:40:58.900Z,90.19
2022-11-28T10:43:38.108Z,90.45
2022-11-28T10:46:31.255Z,90.01
2022-11-28T10:49:20.008Z,89.28
2022-11-28T10:52:01.436Z,89.79
2022-11-28T10:54:52.634Z,89.92
2022-11-28T10:57:39.596Z,89.15
2022-11-28T11:00:20.338Z,89.82
2022-11-28T11:02:57.042Z,90.23
2022-11-28T11:05:30.326Z,89.98
2022-11-28T11:08:05.201Z,90.13
2022-11-28T11:10:50.777Z,90.25
2022-11-28T11:13:23.540Z,89.52
2022-11-28T11:15:58.560Z,89.87
2022-11-28T11:18:28.493Z,89.78
2022-11-28T11:21:20.849Z,90.18
2022-11-28T11:23:48.776Z,89.58
2022-11-28T11:26:37.819Z,90.36
2022-11-28T11:29:05.539Z,89.69
2022-11-28T11:31:42.568Z,89.88
2022-11-28T11:34:20.721Z,90.82
2022-11-28T11:36:47.388Z,90.00
2022-11-28T11:39:13.724Z,90.03
2022-11-28T11:41:42.553Z,89.78
2022-11-28T11:44:14.813Z,90.35
2022-11-28T11:46:58.106Z,91.03
2022-11-28T11:49:32.267Z,91.05
2022-11-28T11:52:04.448Z,91.15
2022-11-28T11:54:31.227Z,91.34
2022-11-28T11:57:24.927Z,91.56
2022-11-28T11:59:50.781Z,91.69
2022-11-28T12:02:20.133Z,92.19
2022-11-28T12:04:55.481Z,92.60
2022-11-28T12:07:29.895Z,93.04
2022-11-28T12:10:03.051Z,93.11
2022-11-28T12:12:34.211Z,93.35
2022-11-28T12:15:00.607Z,93.35
2022-11-28T12:17:58.318Z,93.32
2022-11-28T12:20:28.436Z,93.30
2022-11-28T12:23:03.081Z,93.83
2022-11-28T12:25:55.960Z,93.68
2022-11-28T12:28:40.433Z,93.86
2022-11-28T12:31:14.463Z,93.91
2022-11-28T12:33:46.920Z,94.37
2022-11-28T12:36:38.487Z,94.77
2022-11-28T12:39:29.389Z,95.01
2022-11-28T12:42:37.981Z,94.74
2022-11-28T12:45:20.179Z,94.66
2022-11-28T12:48:11.227Z,94.33
2022-11-28T12:50:40.439Z,94.74
2022-11-28T12:53:25.060Z,94.89
2022-11-28T12:56:33.508Z,95.01
2022-11-28T12:59:05.611Z,95.10
2022-11-28T13:01:50.457Z,95.38
2022-11-28T13:04:25.923Z,95.39
2022-11-28T13:07:07.633Z,95.01
2022-11-28T13:09:53.102Z,95.55
2022-11-28T13:12:19.489Z,95.68
2022-11-28T13:14:57.538Z,95.51
2022-11-28T13:17:44.366Z,95.73
2022-11-28T13:20:24.363Z,95.93
2022-11-28T13:23:20.630Z,95.24
2022-11-28T13:25:54.672Z,95.32
2022-11-28T13:28:33.740Z,95.89
2022-11-28T13:31:09.830Z,95.85
2022-11-28T13:33:50.405Z,95.87
2022-11-28T13:39:40.160Z,95.90
2022-11-28T13:42:43.845Z,96.04
2022-11-28T13:45:01.691Z,95.71
2022-11-28T13:47:31.805Z,95.79
2022-11-28T13:50:23.025Z,96.03
2022-11-28T13:53:08.093Z,96.11
2022-11-28T13:55:46.953Z,96.21
2022-11-28T13:58:18.873Z,96.03
2022-11-28T14:01:14.454Z,95.98
2022-11-28T14:04:00.319Z,95.96
2022-11-28T14:06:40.936Z,96.07
2022-11-28T14:09:08.789Z,96.25
2022-11-28T14:11:59.827Z,95.89
2022-11-28T14:14:52.868Z,95.37
2022-11-28T14:17:22.465Z,95.34
2022-11-28T14:20:13.739Z,95.62
2022-11-28T14:22:58.948Z,96.09
2022-11-28T14:25:39.261Z,95.85
2022-11-28T14:28:16.560Z,95.91
2022-11-28T14:30:45.677Z,95.78
2022-11-28T14:33:32.760Z,95.77
2022-11-28T14:36:12.538Z,95.50
2022-11-28T14:38:38.852Z,95.52
2022-11-28T14:41:09.084Z,95.70
2022-11-28T14:43:40.304Z,95.69
2022-11-28T14:46:19.396Z,95.60
2022-11-28T14:48:58.234Z,95.98
2022-11-28T14:51:49.523Z,95.83
2022-11-28T14:54:25.056Z,95.67
2022-11-28T14:56:58.194Z,96.02
2022-11-28T14:59:31.394Z,95.74
2022-11-28T15:02:12.846Z,96.06
2022-11-28T15:04:59.445Z,96.10
2022-11-28T15:07:47.325Z,96.25
2022-11-28T15:10:36.517Z,96.42
2022-11-28T15:13:15.586Z,95.86
2022-11-28T15:15:49.546Z,96.37
2022-11-28T15:18:18.924Z,96.48
2022-11-28T15:20:55.306Z,96.62
2022-11-28T15:23:30.145Z,96.44
2022-11-28T15:25:58.842Z,96.59
2022-11-28T15:28:28.355Z,96.35
2022-11-28T15:30:57.263Z,96.54
2022-11-28T15:33:25.880Z,96.77
2022-11-28T15:35:58.329Z,96.94
2022-11-28T15:38:26.625Z,97.16
2022-11-28T15:40:55.034Z,97.32
2022-11-28T15:43:22.285Z,97.40
2022-11-28T15:45:50.983Z,97.20
2022-11-28T15:48:36.140Z,97.22
2022-11-28T15:51:06.872Z,97.44
2022-11-28T15:53:33.432Z,97.50
2022-11-28T15:56:11.368Z,97.58
2022-11-28T15:58:38.351Z,97.44
2022-11-28T16:01:22.210Z,97.50
2022-11-28T16:04:03.896Z,97.64
2022-11-28T16:06:34.069Z,97.66
2022-11-28T16:09:25.904Z,97.86
2022-11-28T16:11:54.020Z,98.00
2022-11-28T16:14:42.560Z,98.27
2022-11-28T16:17:18.965Z,98.17
2022-11-28T16:19:45.877Z,97.93
2022-11-28T16:22:19.475Z,98.09
2022-11-28T16:24:47.611Z,98.01
2022-11-28T16:27:45.565Z,98.00
2022-11-28T16:30:25.992Z,97.81
2022-11-28T16:32:55.372Z,98.04
2022-11-28T16:35:40.460Z,98.11
2022-11-28T16:38:23.581Z,98.48
2022-11-28T16:40:51.929Z,98.24
2022-11-28T16:43:47.633Z,97.92
2022-11-28T16:46:20.993Z,98.24
2022-11-28T16:48:58.789Z,97.80
2022-11-28T16:51:29.716Z,98.15
2022-11-28T16:53:59.473Z,98.11
2022-11-28T16:56:25.844Z,98.38
2022-11-28T16:58:58.758Z,98.49
2022-11-28T17:01:25.800Z,98.40
2022-11-28T17:03:53.037Z,98.67
2022-11-28T17:06:26.809Z,98.24
2022-11-28T17:08:53.201Z,98.50
2022-11-28T17:11:22.934Z,98.36
2022-11-28T17:13:49.873Z,98.65
2022-11-28T17:16:22.362Z,98.67
2022-11-28T17:18:49.349Z,98.65
2022-11-28T17:21:18.855Z,98.48
2022-11-28T17:23:45.549Z,98.47
2022-11-28T17:26:11.962Z,98.55
2022-11-28T17:28:38.533Z,98.32
2022-11-28T17:31:05.004Z,98.46
2022-11-28T17:33:31.428Z,98.25
2022-11-28T17:35:59.748Z,98.45
2022-11-28T17:38:26.308Z,98.29
2022-11-28T17:40:52.727Z,98.26
2022-11-28T17:43:21.518Z,98.42
2022-11-28T17:45:48.802Z,98.29
2022-11-28T17:48:16.254Z,98.48
2022-11-28T17:50:44.432Z,98.28
2022-11-28T17:53:12.366Z,98.19
2022-11-28T17:55:40.949Z,98.20
2022-11-28T17:58:19.895Z,98.01
2022-11-28T18:00:47.636Z,98.30
2022-11-28T18:03:14.701Z,98.48
2022-11-28T18:05:46.937Z,98.61
2022-11-28T18:08:21.921Z,98.34
2022-11-28T18:10:49.420Z,98.35
2022-11-28T18:13:17.452Z,98.37
2022-11-28T18:15:45.956Z,98.53
2022-11-28T18:18:12.397Z,98.24
2022-11-28T18:20:38.823Z,98.48
2022-11-28T18:23:05.378Z,98.74
2022-11-28T18:25:31.905Z,98.65
2022-11-28T18:27:58.331Z,98.61
2022-11-28T18:30:24.749Z,98.47
2022-11-28T18:32:51.240Z,98.71
2022-11-28T18:35:19.360Z,99.01
2022-11-28T18:37:45.947Z,98.63
2022-11-28T18:40:13.089Z,99.00
2022-11-28T18:42:40.048Z,98.95
2022-11-28T18:45:07.153Z,98.68
2022-11-28T18:47:35.632Z,98.88
2022-11-28T18:50:02.058Z,98.94
2022-11-28T18:52:28.396Z,98.84
2022-11-28T18:54:54.836Z,99.09
2022-11-28T18:57:21.314Z,99.00
2022-11-28T18:59:54.414Z,98.76
2022-11-28T19:02:21.382Z,98.85
2022-11-28T19:04:47.776Z,99.14
2022-11-28T19:07:14.304Z,99.27
2022-11-28T19:09:41.074Z,98.78
2022-11-28T19:12:08.064Z,99.01
2022-11-28T19:14:34.486Z,99.09
2022-11-28T19:17:02.327Z,98.90
2022-11-28T19:19:28.844Z,99.20
2022-11-28T19:21:55.968Z,99.37
2022-11-28T19:24:22.602Z,99.16
2022-11-28T19:26:49.053Z,98.74
2022-11-28T19:29:15.620Z,99.57
2022-11-28T19:31:42.230Z,98.97
2022-11-28T19:34:12.761Z,99.14
2022-11-28T19:36:41.685Z,99.21
2022-11-28T19:39:25.333Z,99.34
2022-11-28T19:41:53.290Z,99.32
2022-11-28T19:44:21.824Z,99.39
2022-11-28T19:46:48.312Z,99.54
2022-11-28T19:49:20.638Z,99.33
2022-11-28T19:51:48.077Z,99.60
2022-11-28T19:54:15.561Z,99.33
2022-11-28T19:56:42.140Z,99.76
2022-11-28T19:59:08.587Z,99.54
2022-11-28T20:01:35.101Z,99.33
2022-11-28T20:04:01.523Z,99.48
2022-11-28T20:06:31.152Z,99.59
2022-11-28T20:09:04.079Z,99.53
2022-11-28T20:11:33.267Z,99.66
2022-11-28T20:14:08.272Z,99.60
2022-11-28T20:16:36.129Z,99.55
2022-11-28T20:19:03.164Z,99.49
2022-11-28T20:21:30.723Z,99.71
2022-11-28T20:24:04.230Z,99.69
2022-11-28T20:26:34.245Z,99.60
2022-11-28T20:29:00.618Z,99.49
2022-11-28T20:31:35.872Z,99.51
2022-11-28T20:34:03.078Z,99.71
2022-11-28T20:36:31.724Z,99.56
2022-11-28T20:38:59.130Z,99.63
2022-11-28T20:41:27.073Z,99.39
2022-11-28T20:43:53.868Z,99.30
2022-11-28T20:46:22.979Z,99.43
2022-11-28T20:48:49.987Z,99.26
2022-11-28T20:51:21.921Z,99.62
2022-11-28T20:53:48.877Z,99.38
2022-11-28T20:56:18.542Z,99.56
2022-11-28T20:58:45.512Z,99.40
2022-11-28T21:01:35.438Z,99.41
2022-11-28T21:04:03.916Z,99.40
2022-11-28T21:06:30.522Z,99.15
2022-11-28T21:08:57.784Z,99.20
2022-11-28T21:11:50.067Z,99.25
2022-11-28T21:14:12.009Z,99.42
2022-11-28T21:16:38.441Z,99.26
2022-11-28T21:19:08.884Z,99.38
2022-11-28T21:21:37.537Z,99.42
2022-11-28T21:24:10.766Z,99.28
2022-11-28T21:26:41.575Z,99.27
2022-11-28T21:29:11.459Z,99.28
2022-11-28T21:31:41.935Z,99.07
2022-11-28T21:34:14.045Z,99.14
2022-11-28T21:36:40.457Z,98.80
2022-11-28T21:39:06.945Z,99.07
2022-11-28T21:41:33.434Z,99.36
2022-11-28T21:44:00.565Z,99.36
2022-11-28T21:46:28.012Z,99.36
2022-11-28T21:48:54.563Z,99.24
2022-11-28T21:51:23.444Z,99.06
2022-11-28T21:53:50.191Z,100.00
2022-11-28T21:56:17.086Z,99.13
2022-11-28T21:58:44.183Z,99.21
2022-11-28T22:01:13.525Z,99.18
2022-11-28T22:03:41.587Z,99.36
2022-11-28T22:06:22.287Z,99.15
2022-11-28T22:08:49.071Z,99.00
2022-11-28T22:11:16.434Z,99.09
2022-11-28T22:13:45.230Z,98.97
2022-11-28T22:16:16.681Z,99.28
2022-11-28T22:18:43.496Z,99.13
2022-11-28T22:21:49.327Z,98.74
2022-11-28T22:23:57.138Z,99.47
2022-11-28T22:26:23.697Z,99.18
2022-11-28T22:28:53.926Z,99.16
2022-11-28T22:31:21.077Z,99.60
2022-11-28T22:33:49.484Z,99.43
2022-11-28T22:36:18.949Z,99.36
2022-11-28T22:38:47.058Z,98.99
2022-11-28T22:41:26.351Z,99.42
2022-11-28T22:43:56.885Z,99.17
2022-11-28T22:46:23.351Z,99.62
2022-11-28T22:48:50.618Z,99.34
2022-11-28T22:51:20.134Z,99.55
2022-11-28T22:53:46.563Z,99.16
2022-11-28T22:56:14.943Z,99.46
2022-11-28T22:58:44.365Z,99.69
2022-11-28T23:01:17.167Z,99.77
2022-11-28T23:03:44.627Z,99.70
2022-11-28T23:06:16.792Z,99.65
2022-11-28T23:08:43.330Z,99.43
2022-11-28T23:11:13.318Z,99.60
2022-11-28T23:13:40.140Z,99.38
2022-11-28T23:16:19.485Z,99.25
2022-11-28T23:18:48.612Z,99.20
2022-11-28T23:21:16.084Z,99.08
2022-11-28T23:23:44.062Z,99.30
2022-11-28T23:26:14.936Z,99.65
2022-11-28T23:28:41.676Z,99.02
2022-11-28T23:31:09.171Z,99.13
2022-11-28T23:33:36.177Z,99.31
2022-11-28T23:36:16.164Z,99.27
2022-11-28T23:38:43.892Z,99.41
2022-11-28T23:41:11.014Z,99.41
2022-11-28T23:43:37.741Z,99.61
2022-11-28T23:46:04.696Z,99.54
2022-11-28T23:48:31.614Z,99.87
2022-11-28T23:50:58.064Z,99.57
2022-11-28T23:53:24.947Z,99.63
2022-11-28T23:55:51.493Z,99.58
2022-11-28T23:58:18.377Z,99.45
